To NAV CANADA Home Page Login to a new session Search on AWWS site Feedback and Comments Disclaimer Vers la page française équivalente Tips FAQ What's new on the site To the Forecasts and Observations / NOTAM section To "File a Flight Plan" website Publications and other links Update of the User's profile FIC Telephone Numbers My Weather Data Folder Route Weather Data Regional Weather Data Local Weather Data To the Forecasts and Observations / NOTAM section
Request Generated 06/26/2017 at 03:31:21 UTC . Weather information available at that time is displayed.

METAR/TAF

MONT-JOLI/QC    

METAR CYYY 260300Z 22007KT 30SM SKC 15/01 A2976 RMK SLP078 DENSITY
ALT 500FT=
METAR CYYY 260200Z 22006KT 15SM FEW280 15/02 A2975 RMK CI1 SLP078
DENSITY ALT 500FT=
METAR CYYY 260100Z 23007KT 30SM FEW280 17/01 A2974 RMK CI2 SLP073
DENSITY ALT 700FT=

TAF CYYY 260138Z 2602/2614 23007KT P6SM FEW280
BECMG 2606/2608 31007KT
FM260800 31007KT P6SM BKN100
BECMG 2610/2612 35009KT FEW100
RMK NXT FCST BY 260800Z=
Your time UTC time
Weather data provided by Environment Canada and NAV CANADA